Terminal Aerodrome Forecast
Issued by NWS

Home | Current Version | Previous Version | Text Only | Print | Product List | Glossary On
Versions: 1 2 3 4 5 6 7 8 9 10 11 12 13
000
FTUS43 KILX 300500
TAFDEC
TAF
KDEC 300522Z 3006/3106 29008KT P6SM SKC
     FM301400 25008KT P6SM SCT250
     FM301800 25010G18KT P6SM SCT250
     FM310000 21011KT P6SM SCT250=

USA.gov is the U.S. government's official web portal to all federal, state and local government web resources and services.